Time;durP1;ratioP1;P1;durP2;ratioP2;P2;SDS_P1;SDS_P2;PMS_P1;PMS_P2;Temp;Humidity;BMP_temperature;BMP_pressure;BME280_temperature;BME280_humidity;BME280_pressure;Samples;Min_cycle;Max_cycle;Signal;HPM_P1;HPM_P2
2023/01/23 00:00:14;;;;;;;9.77;6.30;;;;;;;;;;5081195;28;20543;-59
2023/01/23 00:02:42;;;;;;;11.97;7.27;;;;;;;;;;5081206;28;20517;-59
2023/01/23 00:05:10;;;;;;;9.07;6.63;;;;;;;;;;5081042;28;20440;-59
2023/01/23 00:07:39;;;;;;;10.87;7.53;;;;;;;;;;5081426;28;20487;-59
2023/01/23 00:10:08;;;;;;;15.90;7.90;;;;;;;;;;5080353;28;20850;-59
2023/01/23 00:12:36;;;;;;;11.40;8.43;;;;;;;;;;5080944;28;20444;-59
2023/01/23 00:15:05;;;;;;;10.10;7.43;;;;;;;;;;5080674;28;20869;-59
2023/01/23 00:17:33;;;;;;;10.10;6.87;;;;;;;;;;5081033;28;20444;-59
2023/01/23 00:20:01;;;;;;;9.10;6.97;;;;;;;;;;5080619;28;20511;-59
2023/01/23 00:22:29;;;;;;;10.97;7.93;;;;;;;;;;5080988;28;20494;-59
2023/01/23 00:24:59;;;;;;;11.33;7.70;;;;;;;;;;5080895;28;20530;-59
2023/01/23 00:27:26;;;;;;;9.37;6.53;;;;;;;;;;5080564;28;21023;-59
2023/01/23 00:29:55;;;;;;;10.17;6.67;;;;;;;;;;5080409;28;20447;-59
2023/01/23 00:32:23;;;;;;;9.07;6.67;;;;;;;;;;5080641;28;20448;-59
2023/01/23 00:34:51;;;;;;;10.93;6.83;;;;;;;;;;5080451;28;20487;-59
2023/01/23 00:37:19;;;;;;;9.90;7.03;;;;;;;;;;5080743;28;20450;-59
2023/01/23 00:39:49;;;;;;;10.20;6.33;;;;;;;;;;5080500;28;21020;-59
2023/01/23 00:42:19;;;;;;;11.30;6.67;;;;;;;;;;5080678;28;20447;-59
2023/01/23 00:44:47;;;;;;;10.00;7.13;;;;;;;;;;5080222;28;20874;-59
2023/01/23 00:47:15;;;;;;;10.30;7.07;;;;;;;;;;5080654;28;20451;-59
2023/01/23 00:49:43;;;;;;;10.50;7.33;;;;;;;;;;5080566;28;20445;-59
2023/01/23 00:52:10;;;;;;;8.30;6.47;;;;;;;;;;5080303;28;20963;-59
2023/01/23 00:54:38;;;;;;;10.13;6.70;;;;;;;;;;5080206;28;20496;-59
2023/01/23 00:57:06;;;;;;;9.60;6.87;;;;;;;;;;5080203;28;20781;-59
2023/01/23 00:59:36;;;;;;;9.53;7.33;;;;;;;;;;5080051;28;20568;-59
2023/01/23 01:02:04;;;;;;;9.73;6.93;;;;;;;;;;5080152;28;20459;-59
2023/01/23 01:04:32;;;;;;;8.00;6.63;;;;;;;;;;5079764;28;20551;-59
2023/01/23 01:07:00;;;;;;;8.83;6.73;;;;;;;;;;5080353;28;20448;-59
2023/01/23 01:09:28;;;;;;;9.50;6.43;;;;;;;;;;5080224;28;20479;-59
2023/01/23 01:11:56;;;;;;;9.63;6.80;;;;;;;;;;5079974;28;20951;-59
2023/01/23 01:14:24;;;;;;;9.17;6.63;;;;;;;;;;5079756;28;20490;-59
2023/01/23 01:16:53;;;;;;;9.40;6.47;;;;;;;;;;5080127;28;20537;-59
2023/01/23 01:19:21;;;;;;;9.47;7.43;;;;;;;;;;5079581;28;20971;-59
2023/01/23 01:21:49;;;;;;;11.70;7.43;;;;;;;;;;5080052;28;20467;-59
2023/01/23 01:24:17;;;;;;;10.90;7.73;;;;;;;;;;5079868;28;20502;-59
2023/01/23 01:26:45;;;;;;;11.57;7.03;;;;;;;;;;5079674;28;20513;-59
2023/01/23 01:29:13;;;;;;;9.93;6.40;;;;;;;;;;5079365;28;20532;-59
2023/01/23 01:31:41;;;;;;;10.00;8.03;;;;;;;;;;5079838;28;20444;-59
2023/01/23 01:34:11;;;;;;;10.10;6.43;;;;;;;;;;5079288;28;20480;-59
2023/01/23 01:36:39;;;;;;;9.40;6.87;;;;;;;;;;5080000;28;20527;-59
2023/01/23 01:39:07;;;;;;;8.87;6.23;;;;;;;;;;5079611;28;20578;-59
2023/01/23 01:41:35;;;;;;;7.73;6.53;;;;;;;;;;5079611;28;20528;-59
2023/01/23 01:44:03;;;;;;;9.07;6.27;;;;;;;;;;5079197;28;20499;-59
2023/01/23 01:46:32;;;;;;;9.60;6.43;;;;;;;;;;5079621;28;20448;-59
2023/01/23 01:49:02;;;;;;;11.33;7.57;;;;;;;;;;5066962;28;20454;-59
2023/01/23 01:51:34;;;;;;;9.97;7.27;;;;;;;;;;5076031;28;20444;-59
2023/01/23 01:54:05;;;;;;;12.33;7.37;;;;;;;;;;5079191;28;20528;-59
2023/01/23 01:56:36;;;;;;;8.97;6.73;;;;;;;;;;5078588;28;20437;-59
2023/01/23 01:59:05;;;;;;;10.70;7.60;;;;;;;;;;5078577;28;20535;-59
2023/01/23 02:01:33;;;;;;;11.30;7.33;;;;;;;;;;5079288;28;20528;-59
2023/01/23 02:04:01;;;;;;;9.90;6.60;;;;;;;;;;5078968;28;20470;-59
2023/01/23 02:06:29;;;;;;;8.73;6.67;;;;;;;;;;5078864;28;20446;-59
2023/01/23 02:09:02;;;;;;;7.83;5.90;;;;;;;;;;5078837;28;20457;-59
2023/01/23 02:11:30;;;;;;;9.50;6.83;;;;;;;;;;5078941;28;20440;-59
2023/01/23 02:13:58;;;;;;;11.73;7.67;;;;;;;;;;5078121;28;20465;-59
2023/01/23 02:16:29;;;;;;;9.27;6.73;;;;;;;;;;5077944;28;20447;-59
2023/01/23 02:18:59;;;;;;;7.47;5.93;;;;;;;;;;5077772;28;20502;-59
2023/01/23 02:21:27;;;;;;;9.73;6.43;;;;;;;;;;5076694;28;20960;-59
2023/01/23 02:24:14;;;;;;;8.53;6.50;;;;;;;;;;5076724;28;20468;-59
2023/01/23 02:26:44;;;;;;;8.23;6.57;;;;;;;;;;5076524;28;20466;-59
2023/01/23 02:29:13;;;;;;;8.40;6.80;;;;;;;;;;5076374;28;20464;-59
2023/01/23 02:31:44;;;;;;;8.93;6.23;;;;;;;;;;5076703;28;20447;-59
2023/01/23 02:34:12;;;;;;;9.93;7.27;;;;;;;;;;5076928;28;20500;-59
2023/01/23 02:36:42;;;;;;;8.40;6.57;;;;;;;;;;5078630;28;20472;-59
2023/01/23 02:39:12;;;;;;;7.87;6.37;;;;;;;;;;5078606;28;20512;-59
2023/01/23 02:41:41;;;;;;;9.30;6.60;;;;;;;;;;5078119;28;20479;-59
2023/01/23 02:44:12;;;;;;;7.97;6.07;;;;;;;;;;5077807;28;20500;-59
2023/01/23 02:46:40;;;;;;;10.23;6.70;;;;;;;;;;5078169;28;20997;-59
2023/01/23 02:49:08;;;;;;;11.00;7.37;;;;;;;;;;5078244;28;20479;-59
2023/01/23 02:51:37;;;;;;;8.20;6.33;;;;;;;;;;5078302;28;20448;-59
2023/01/23 02:54:05;;;;;;;8.63;6.13;;;;;;;;;;5078256;28;20468;-59
2023/01/23 02:56:33;;;;;;;8.50;6.30;;;;;;;;;;5078223;28;20479;-59
2023/01/23 03:01:48;;;;;;;8.67;6.13;;;;;;;;;;5078206;28;20454;-59
2023/01/23 03:04:16;;;;;;;10.47;6.93;;;;;;;;;;5077993;28;20460;-59
2023/01/23 03:06:44;;;;;;;8.33;6.23;;;;;;;;;;5077874;28;21021;-59
2023/01/23 03:09:14;;;;;;;9.77;6.73;;;;;;;;;;5077893;28;20799;-59
2023/01/23 03:11:43;;;;;;;8.83;6.63;;;;;;;;;;5077982;28;20441;-59
2023/01/23 03:14:12;;;;;;;8.77;6.33;;;;;;;;;;5077505;28;21037;-59
2023/01/23 03:16:41;;;;;;;9.23;6.10;;;;;;;;;;5078060;28;20445;-59
2023/01/23 03:19:11;;;;;;;9.53;6.73;;;;;;;;;;5077525;28;20885;-59
2023/01/23 03:21:39;;;;;;;8.83;6.17;;;;;;;;;;5077933;28;20486;-59
2023/01/23 03:24:08;;;;;;;10.53;6.97;;;;;;;;;;5077572;28;20528;-59
2023/01/23 03:26:38;;;;;;;8.00;5.97;;;;;;;;;;5077836;28;20526;-59
2023/01/23 03:31:51;;;;;;;9.00;6.20;;;;;;;;;;5077916;28;20448;-59
2023/01/23 03:34:21;;;;;;;8.27;7.27;;;;;;;;;;5077269;28;20521;-59
2023/01/23 03:36:49;;;;;;;9.43;6.90;;;;;;;;;;5077665;28;20476;-59
2023/01/23 03:42:03;;;;;;;7.43;6.37;;;;;;;;;;5077962;28;20464;-59
2023/01/23 03:44:31;;;;;;;9.43;6.13;;;;;;;;;;5077188;28;20831;-59
2023/01/23 03:46:59;;;;;;;9.97;6.33;;;;;;;;;;5077417;28;20462;-59
2023/01/23 03:49:28;;;;;;;8.23;5.90;;;;;;;;;;5077588;28;20448;-59
2023/01/23 03:51:56;;;;;;;7.40;5.53;;;;;;;;;;5077238;28;20435;-59
2023/01/23 03:54:24;;;;;;;8.97;6.13;;;;;;;;;;5077260;28;20493;-59
2023/01/23 03:56:52;;;;;;;10.03;6.27;;;;;;;;;;5077482;28;20525;-59
2023/01/23 03:59:20;;;;;;;7.20;5.70;;;;;;;;;;5077188;28;20523;-59
2023/01/23 04:01:48;;;;;;;8.77;6.57;;;;;;;;;;5077256;28;20520;-59
2023/01/23 04:04:17;;;;;;;9.77;6.23;;;;;;;;;;5077157;28;20464;-59
2023/01/23 04:06:46;;;;;;;11.43;7.00;;;;;;;;;;5077433;28;20451;-59
2023/01/23 04:09:14;;;;;;;10.33;6.13;;;;;;;;;;5077335;28;20974;-59
2023/01/23 04:11:42;;;;;;;8.23;6.40;;;;;;;;;;5077144;28;20947;-59
2023/01/23 04:14:10;;;;;;;10.17;6.87;;;;;;;;;;5076858;28;20984;-59
2023/01/23 04:16:38;;;;;;;8.57;5.87;;;;;;;;;;5077371;28;20502;-59
2023/01/23 04:19:06;;;;;;;9.03;6.67;;;;;;;;;;5077199;28;20444;-59
2023/01/23 04:21:34;;;;;;;9.97;7.37;;;;;;;;;;5076966;28;20484;-59
2023/01/23 04:24:03;;;;;;;7.37;6.23;;;;;;;;;;5077325;28;20460;-59
2023/01/23 04:26:33;;;;;;;8.03;6.33;;;;;;;;;;5077284;28;20480;-59
2023/01/23 04:29:02;;;;;;;8.07;6.63;;;;;;;;;;5076994;28;20518;-59
2023/01/23 04:31:30;;;;;;;9.33;6.43;;;;;;;;;;5076997;28;20476;-59
2023/01/23 04:33:58;;;;;;;11.53;6.67;;;;;;;;;;5076951;28;20463;-59
2023/01/23 04:36:26;;;;;;;8.50;6.37;;;;;;;;;;5077144;28;20459;-59
2023/01/23 04:38:54;;;;;;;8.90;6.53;;;;;;;;;;5078076;28;20463;-59
2023/01/23 04:41:24;;;;;;;8.23;6.50;;;;;;;;;;5080738;28;20486;-59
2023/01/23 04:43:52;;;;;;;8.50;6.37;;;;;;;;;;5077497;28;20468;-59
2023/01/23 04:46:20;;;;;;;8.50;6.60;;;;;;;;;;5080771;28;20453;-59
2023/01/23 04:48:48;;;;;;;9.67;7.23;;;;;;;;;;5080337;28;20444;-59
2023/01/23 04:51:16;;;;;;;10.13;7.07;;;;;;;;;;5080611;28;20448;-59
2023/01/23 04:53:44;;;;;;;11.13;7.53;;;;;;;;;;5080431;28;20468;-59
2023/01/23 04:56:12;;;;;;;9.67;7.60;;;;;;;;;;5065048;28;20988;-59
2023/01/23 04:58:41;;;;;;;9.53;6.80;;;;;;;;;;5078894;28;20445;-59
2023/01/23 05:01:09;;;;;;;11.03;6.83;;;;;;;;;;5080185;28;20492;-59
2023/01/23 05:03:37;;;;;;;8.37;6.50;;;;;;;;;;5079975;28;20475;-59
2023/01/23 05:06:06;;;;;;;8.57;6.10;;;;;;;;;;5079888;28;20458;-59
2023/01/23 05:08:34;;;;;;;10.83;6.77;;;;;;;;;;5080298;28;20471;-59
2023/01/23 05:11:02;;;;;;;8.97;6.20;;;;;;;;;;5079725;28;20948;-59
2023/01/23 05:13:30;;;;;;;10.27;7.67;;;;;;;;;;5078581;28;21074;-59
2023/01/23 05:15:59;;;;;;;9.30;7.37;;;;;;;;;;5074213;28;20546;-59
2023/01/23 05:18:27;;;;;;;8.50;6.67;;;;;;;;;;5072822;28;20487;-59
2023/01/23 05:20:55;;;;;;;8.83;7.10;;;;;;;;;;5075363;28;20555;-59
2023/01/23 05:23:23;;;;;;;7.83;6.53;;;;;;;;;;5074580;28;20793;-59
2023/01/23 05:25:51;;;;;;;7.47;6.50;;;;;;;;;;5078782;28;20448;-59
2023/01/23 05:28:19;;;;;;;7.17;5.80;;;;;;;;;;5078029;28;20560;-59
2023/01/23 05:30:47;;;;;;;10.10;6.67;;;;;;;;;;5074580;28;20437;-59
2023/01/23 05:33:17;;;;;;;8.93;6.60;;;;;;;;;;5073841;28;20971;-59
2023/01/23 05:35:45;;;;;;;11.40;7.17;;;;;;;;;;5072689;28;20496;-59
2023/01/23 05:38:15;;;;;;;9.47;7.17;;;;;;;;;;5072166;28;20432;-59
2023/01/23 05:40:43;;;;;;;8.60;6.93;;;;;;;;;;5066938;28;20516;-59
2023/01/23 05:43:13;;;;;;;8.93;6.10;;;;;;;;;;5072515;28;20927;-59
2023/01/23 05:45:41;;;;;;;10.00;6.63;;;;;;;;;;5070514;28;20470;-59
2023/01/23 05:48:09;;;;;;;10.20;7.27;;;;;;;;;;5072932;28;20520;-59
2023/01/23 05:50:39;;;;;;;10.17;6.87;;;;;;;;;;5074403;28;20442;-59
2023/01/23 05:53:07;;;;;;;9.07;6.87;;;;;;;;;;5071182;28;20479;-59
2023/01/23 05:55:37;;;;;;;9.67;6.93;;;;;;;;;;5067821;28;20430;-59
2023/01/23 05:58:05;;;;;;;7.37;6.20;;;;;;;;;;5069468;28;20432;-59
2023/01/23 06:00:33;;;;;;;9.07;6.87;;;;;;;;;;5074864;28;20444;-59
2023/01/23 06:03:01;;;;;;;8.77;6.43;;;;;;;;;;5071908;28;20595;-59
2023/01/23 06:05:30;;;;;;;8.80;6.53;;;;;;;;;;5072383;28;20443;-59
2023/01/23 06:07:59;;;;;;;10.80;5.60;;;;;;;;;;5078950;28;20484;-59
2023/01/23 06:10:27;;;;;;;7.17;6.27;;;;;;;;;;5079051;28;20479;-59
2023/01/23 06:12:55;;;;;;;10.03;7.23;;;;;;;;;;5078866;28;20471;-59
2023/01/23 06:15:23;;;;;;;10.93;7.03;;;;;;;;;;5078696;28;20479;-58
2023/01/23 06:17:51;;;;;;;9.73;6.43;;;;;;;;;;5078826;28;20444;-59
2023/01/23 06:20:19;;;;;;;9.10;5.77;;;;;;;;;;5075162;28;20463;-59
2023/01/23 06:22:48;;;;;;;8.27;6.20;;;;;;;;;;5078601;28;20491;-59
2023/01/23 06:25:19;;;;;;;9.33;7.13;;;;;;;;;;5078784;28;20444;-59
2023/01/23 06:27:47;;;;;;;8.70;6.57;;;;;;;;;;5067766;28;20447;-59
2023/01/23 06:30:15;;;;;;;7.73;6.10;;;;;;;;;;5076925;28;20441;-59
2023/01/23 06:32:44;;;;;;;7.40;6.03;;;;;;;;;;5077053;28;20460;-59
2023/01/23 06:35:12;;;;;;;8.77;6.63;;;;;;;;;;5074089;28;20464;-57
2023/01/23 06:37:40;;;;;;;10.63;7.03;;;;;;;;;;5078356;28;20448;-57
2023/01/23 06:40:11;;;;;;;9.60;6.57;;;;;;;;;;5078196;28;20444;-57
2023/01/23 06:42:41;;;;;;;9.70;6.27;;;;;;;;;;5078410;28;20484;-57
2023/01/23 06:45:10;;;;;;;8.40;6.67;;;;;;;;;;5078282;28;20472;-57
2023/01/23 06:47:38;;;;;;;9.20;6.60;;;;;;;;;;5078296;28;20449;-57
2023/01/23 06:50:07;;;;;;;9.57;7.50;;;;;;;;;;5077884;28;20448;-57
2023/01/23 06:52:35;;;;;;;7.63;6.67;;;;;;;;;;5077733;28;20440;-57
2023/01/23 06:55:03;;;;;;;9.43;6.23;;;;;;;;;;5078084;28;20449;-57
2023/01/23 06:57:31;;;;;;;7.67;5.80;;;;;;;;;;5077903;28;20872;-57
2023/01/23 07:00:00;;;;;;;8.07;6.13;;;;;;;;;;5077668;28;20487;-57
2023/01/23 07:02:28;;;;;;;9.53;7.10;;;;;;;;;;5077387;28;20945;-57
2023/01/23 07:04:57;;;;;;;9.67;6.20;;;;;;;;;;5077817;28;20444;-59
2023/01/23 07:07:25;;;;;;;12.23;7.47;;;;;;;;;;5077792;28;20448;-58
2023/01/23 07:09:53;;;;;;;8.13;6.30;;;;;;;;;;5077527;28;20476;-59
2023/01/23 07:12:21;;;;;;;9.47;6.70;;;;;;;;;;5077917;28;20445;-59
2023/01/23 07:14:49;;;;;;;10.13;6.93;;;;;;;;;;5077563;28;20475;-59
2023/01/23 07:17:18;;;;;;;8.70;6.93;;;;;;;;;;5077711;28;20880;-59
2023/01/23 07:19:46;;;;;;;8.17;6.30;;;;;;;;;;5077450;28;20991;-59
2023/01/23 07:22:17;;;;;;;8.70;6.80;;;;;;;;;;5077524;28;21051;-59
2023/01/23 07:24:45;;;;;;;8.77;6.90;;;;;;;;;;5077538;28;20928;-59
2023/01/23 07:27:13;;;;;;;8.13;6.23;;;;;;;;;;5077457;28;21020;-60
2023/01/23 07:29:41;;;;;;;8.87;6.37;;;;;;;;;;5077489;28;20437;-60
2023/01/23 07:32:09;;;;;;;10.40;6.80;;;;;;;;;;5077620;28;20451;-60
2023/01/23 07:34:39;;;;;;;9.00;6.43;;;;;;;;;;5077279;28;20995;-59
2023/01/23 07:37:07;;;;;;;9.60;6.97;;;;;;;;;;5074796;28;20517;-59
2023/01/23 07:39:35;;;;;;;7.67;6.43;;;;;;;;;;5066484;28;20950;-60
2023/01/23 07:42:03;;;;;;;8.90;6.50;;;;;;;;;;5067085;28;20908;-60
2023/01/23 07:44:31;;;;;;;10.80;7.13;;;;;;;;;;5077113;28;21050;-60
2023/01/23 07:46:59;;;;;;;7.07;5.73;;;;;;;;;;5077342;28;20451;-60
2023/01/23 07:49:27;;;;;;;7.63;6.03;;;;;;;;;;5077565;28;20522;-59
2023/01/23 07:51:56;;;;;;;9.70;6.67;;;;;;;;;;5076839;28;20516;-59
2023/01/23 07:54:24;;;;;;;11.80;7.53;;;;;;;;;;5077599;28;20471;-59
2023/01/23 07:56:52;;;;;;;10.20;7.27;;;;;;;;;;5077436;28;20445;-59
2023/01/23 07:59:20;;;;;;;7.63;6.10;;;;;;;;;;5077287;28;20454;-59
2023/01/23 08:01:51;;;;;;;8.30;6.13;;;;;;;;;;5077100;28;20814;-58
2023/01/23 08:04:19;;;;;;;8.43;7.13;;;;;;;;;;5077342;28;20513;-58
2023/01/23 08:06:47;;;;;;;7.93;6.07;;;;;;;;;;5077158;28;20598;-58
2023/01/23 08:09:16;;;;;;;10.83;6.57;;;;;;;;;;5077446;28;20444;-58
2023/01/23 08:11:44;;;;;;;12.70;6.70;;;;;;;;;;5077370;28;20444;-58
2023/01/23 08:14:12;;;;;;;8.77;6.03;;;;;;;;;;5078283;28;20488;-58
2023/01/23 08:16:40;;;;;;;8.83;6.00;;;;;;;;;;5080971;28;20961;-57
2023/01/23 08:19:08;;;;;;;9.73;6.77;;;;;;;;;;5076991;28;20456;-57
2023/01/23 08:21:36;;;;;;;8.87;6.47;;;;;;;;;;5080761;28;20447;-58
2023/01/23 08:24:05;;;;;;;8.03;6.37;;;;;;;;;;5080392;28;20999;-58
2023/01/23 08:26:34;;;;;;;11.40;6.73;;;;;;;;;;5080514;28;20444;-58
2023/01/23 08:29:02;;;;;;;9.43;6.77;;;;;;;;;;5080502;28;20448;-57
2023/01/23 08:31:30;;;;;;;8.50;6.23;;;;;;;;;;5080854;28;20460;-58
2023/01/23 08:33:58;;;;;;;13.80;7.33;;;;;;;;;;5080134;28;20483;-58
2023/01/23 08:36:26;;;;;;;9.33;6.67;;;;;;;;;;5080193;28;20472;-58
2023/01/23 08:38:54;;;;;;;10.13;6.90;;;;;;;;;;5080605;28;20444;-58
2023/01/23 08:41:23;;;;;;;9.27;6.37;;;;;;;;;;5080559;28;20480;-58
2023/01/23 08:43:53;;;;;;;8.17;6.03;;;;;;;;;;5079837;28;21353;-58
2023/01/23 08:46:21;;;;;;;7.27;6.20;;;;;;;;;;5080362;28;20881;-58
2023/01/23 08:48:49;;;;;;;7.70;6.10;;;;;;;;;;5081460;28;20444;-58
2023/01/23 08:51:17;;;;;;;8.47;6.37;;;;;;;;;;5080090;28;20952;-58
2023/01/23 08:53:45;;;;;;;8.03;5.93;;;;;;;;;;5079839;28;20468;-58
2023/01/23 08:56:14;;;;;;;8.30;6.30;;;;;;;;;;5080465;28;20485;-58
2023/01/23 08:58:43;;;;;;;11.07;7.23;;;;;;;;;;5080307;28;20502;-58
2023/01/23 09:01:17;;;;;;;9.10;6.30;;;;;;;;;;5080144;28;20452;-58
2023/01/23 09:03:45;;;;;;;8.37;6.27;;;;;;;;;;5080213;28;20484;-58
2023/01/23 09:06:14;;;;;;;8.17;5.67;;;;;;;;;;5077112;28;20452;-57
2023/01/23 09:08:42;;;;;;;10.40;7.07;;;;;;;;;;5067698;28;20475;-58
2023/01/23 09:11:11;;;;;;;6.90;6.07;;;;;;;;;;5079849;28;20465;-58
2023/01/23 09:13:39;;;;;;;9.27;6.43;;;;;;;;;;5079523;28;20539;-57
2023/01/23 09:16:08;;;;;;;8.43;6.20;;;;;;;;;;5080068;28;20472;-58
2023/01/23 09:18:38;;;;;;;9.70;6.07;;;;;;;;;;5079918;28;20476;-58
2023/01/23 09:21:06;;;;;;;9.10;6.60;;;;;;;;;;5078808;28;20444;-57
2023/01/23 09:23:35;;;;;;;9.20;6.33;;;;;;;;;;5078556;28;20487;-58
2023/01/23 09:26:04;;;;;;;8.50;6.53;;;;;;;;;;5078850;28;20475;-57
2023/01/23 09:28:32;;;;;;;7.83;5.67;;;;;;;;;;5079021;28;20841;-58
2023/01/23 09:31:02;;;;;;;9.40;6.07;;;;;;;;;;5079437;28;20475;-57
2023/01/23 09:33:31;;;;;;;7.77;5.90;;;;;;;;;;5079660;28;20464;-58
2023/01/23 09:36:00;;;;;;;7.27;6.00;;;;;;;;;;5078976;28;20496;-58
2023/01/23 09:38:28;;;;;;;8.70;6.33;;;;;;;;;;5079612;28;20527;-58
2023/01/23 09:40:57;;;;;;;7.90;6.37;;;;;;;;;;5079000;28;20440;-58
2023/01/23 09:43:28;;;;;;;8.43;6.03;;;;;;;;;;5077913;28;20488;-57
2023/01/23 09:46:03;;;;;;;7.70;5.73;;;;;;;;;;5079283;28;20455;-57
2023/01/23 09:48:34;;;;;;;7.50;6.20;;;;;;;;;;5078934;28;20895;-57
2023/01/23 09:51:06;;;;;;;10.97;5.73;;;;;;;;;;5079307;28;20448;-58
2023/01/23 09:53:37;;;;;;;13.20;5.60;;;;;;;;;;5079207;28;20461;-58
2023/01/23 09:56:13;;;;;;;6.07;5.27;;;;;;;;;;5079089;28;20483;-58
2023/01/23 09:58:43;;;;;;;9.00;5.97;;;;;;;;;;5078883;28;20475;-59
2023/01/23 10:01:12;;;;;;;8.53;6.33;;;;;;;;;;5074768;28;20479;-59
2023/01/23 10:03:40;;;;;;;8.83;6.53;;;;;;;;;;5078906;28;20484;-58
2023/01/23 10:06:18;;;;;;;9.30;6.63;;;;;;;;;;5078949;28;20444;-59
2023/01/23 10:08:54;;;;;;;10.23;6.20;;;;;;;;;;5066735;28;20531;-58
2023/01/23 10:11:26;;;;;;;9.00;5.90;;;;;;;;;;5078682;28;20923;-58
2023/01/23 10:14:09;;;;;;;7.07;5.40;;;;;;;;;;5078638;28;20543;-58
2023/01/23 10:16:43;;;;;;;6.50;5.50;;;;;;;;;;5078492;28;20456;-59
2023/01/23 10:19:22;;;;;;;8.27;5.57;;;;;;;;;;5078356;28;20432;-59
2023/01/23 10:21:55;;;;;;;6.77;5.30;;;;;;;;;;5078708;28;20445;-59
2023/01/23 10:24:32;;;;;;;8.40;5.93;;;;;;;;;;5078303;28;20490;-59
2023/01/23 10:27:15;;;;;;;12.00;6.27;;;;;;;;;;5078722;28;20444;-58
2023/01/23 10:29:45;;;;;;;7.27;5.60;;;;;;;;;;5078379;28;20448;-58
2023/01/23 10:32:18;;;;;;;6.63;5.30;;;;;;;;;;5078416;28;20536;-59
2023/01/23 10:34:49;;;;;;;7.57;5.40;;;;;;;;;;5077770;28;20475;-58
2023/01/23 10:37:21;;;;;;;8.70;6.00;;;;;;;;;;5077551;28;20543;-59
2023/01/23 10:39:50;;;;;;;6.47;5.20;;;;;;;;;;5078439;28;20523;-59
2023/01/23 10:42:20;;;;;;;9.33;5.83;;;;;;;;;;5078142;28;20472;-59
2023/01/23 10:44:48;;;;;;;6.93;5.27;;;;;;;;;;5077735;28;20484;-58
2023/01/23 10:47:20;;;;;;;7.97;5.83;;;;;;;;;;5077921;28;20509;-58
2023/01/23 10:49:48;;;;;;;7.27;5.37;;;;;;;;;;5077824;28;20466;-58
2023/01/23 10:52:30;;;;;;;6.10;4.90;;;;;;;;;;5077726;28;20467;-58
2023/01/23 10:54:59;;;;;;;7.87;5.27;;;;;;;;;;5077318;28;20947;-58
2023/01/23 10:57:28;;;;;;;9.33;5.93;;;;;;;;;;5077994;28;20444;-58
2023/01/23 10:59:59;;;;;;;7.70;5.83;;;;;;;;;;5077018;28;20855;-58
2023/01/23 11:02:28;;;;;;;9.33;5.93;;;;;;;;;;5077682;28;20448;-58
2023/01/23 11:04:56;;;;;;;7.40;5.33;;;;;;;;;;5077910;28;20484;-57
2023/01/23 11:07:25;;;;;;;9.57;6.17;;;;;;;;;;5077796;28;20464;-57
2023/01/23 11:09:56;;;;;;;6.47;5.30;;;;;;;;;;5077956;28;20451;-58
2023/01/23 11:12:25;;;;;;;9.03;5.57;;;;;;;;;;5077801;28;20448;-58
2023/01/23 11:15:11;;;;;;;6.00;5.00;;;;;;;;;;5077528;28;20472;-58
2023/01/23 11:17:39;;;;;;;7.30;5.27;;;;;;;;;;5077922;28;20483;-58
2023/01/23 11:20:11;;;;;;;5.37;4.50;;;;;;;;;;5070824;28;20438;-58
2023/01/23 11:22:41;;;;;;;7.43;5.20;;;;;;;;;;5073546;28;20503;-58
2023/01/23 11:25:29;;;;;;;5.43;4.43;;;;;;;;;;5079243;28;20512;-58
2023/01/23 11:27:58;;;;;;;8.10;5.07;;;;;;;;;;5077356;28;20781;-58
2023/01/23 11:30:34;;;;;;;5.97;4.80;;;;;;;;;;5071244;28;20460;-58
2023/01/23 11:33:10;;;;;;;6.90;5.33;;;;;;;;;;5077115;28;20881;-58
2023/01/23 11:35:45;;;;;;;6.80;5.17;;;;;;;;;;5076998;28;20892;-59
2023/01/23 11:38:16;;;;;;;5.43;4.53;;;;;;;;;;5077588;28;20447;-59
2023/01/23 11:40:52;;;;;;;8.63;4.13;;;;;;;;;;5076773;28;20510;-58
2023/01/23 11:43:20;;;;;;;7.40;4.97;;;;;;;;;;5075691;28;20472;-59
2023/01/23 11:45:56;;;;;;;6.43;4.77;;;;;;;;;;5068451;28;20477;-59
2023/01/23 11:48:31;;;;;;;7.00;6.13;;;;;;;;;;5079265;28;20466;-58
2023/01/23 11:51:03;;;;;;;9.90;5.07;;;;;;;;;;5081204;28;20435;-58
2023/01/23 11:53:34;;;;;;;5.90;4.50;;;;;;;;;;5078460;28;20882;-57
2023/01/23 11:56:34;;;;;;;7.53;4.50;;;;;;;;;;5081629;28;20526;-57
2023/01/23 11:59:11;;;;;;;6.97;4.37;;;;;;;;;;5081092;28;20852;-57
2023/01/23 12:01:42;;;;;;;7.33;5.23;;;;;;;;;;5081318;28;20507;-57
2023/01/23 12:04:33;;;;;;;8.17;4.87;;;;;;;;;;5081311;28;20490;-57
2023/01/23 12:07:07;;;;;;;6.57;4.73;;;;;;;;;;5073207;28;20452;-58
2023/01/23 12:09:41;;;;;;;6.23;4.50;;;;;;;;;;5074029;28;20440;-57
2023/01/23 12:12:13;;;;;;;6.47;4.47;;;;;;;;;;5070840;28;20508;-57
2023/01/23 12:14:46;;;;;;;5.37;4.43;;;;;;;;;;5066596;28;20511;-57
2023/01/23 12:17:17;;;;;;;4.90;4.40;;;;;;;;;;5079304;28;20479;-57
2023/01/23 12:20:06;;;;;;;5.77;4.60;;;;;;;;;;5079389;28;20450;-57
2023/01/23 12:22:41;;;;;;;5.83;4.63;;;;;;;;;;5069394;28;20436;-57
2023/01/23 12:25:18;;;;;;;7.67;5.13;;;;;;;;;;5080134;28;20595;-57
2023/01/23 12:27:49;;;;;;;7.10;4.73;;;;;;;;;;5079168;28;20834;-58
2023/01/23 12:30:43;;;;;;;7.00;5.10;;;;;;;;;;5079966;28;20448;-57
2023/01/23 12:33:25;;;;;;;4.37;3.97;;;;;;;;;;5023922;28;20467;-58
2023/01/23 12:35:58;;;;;;;7.00;4.90;;;;;;;;;;5079587;28;20492;-57
2023/01/23 12:38:30;;;;;;;6.27;4.60;;;;;;;;;;5080440;28;20878;-57
2023/01/23 12:41:12;;;;;;;4.83;4.23;;;;;;;;;;5080656;28;20448;-57
2023/01/23 12:43:45;;;;;;;6.47;4.80;;;;;;;;;;5079921;28;20894;-57
2023/01/23 12:46:16;;;;;;;5.53;4.57;;;;;;;;;;5080268;28;20492;-57
2023/01/23 12:48:46;;;;;;;6.13;4.90;;;;;;;;;;5080637;28;20518;-57
2023/01/23 12:51:16;;;;;;;7.30;5.07;;;;;;;;;;5080561;28;20480;-58
2023/01/23 12:53:45;;;;;;;5.73;4.73;;;;;;;;;;5080047;28;20856;-58
2023/01/23 12:56:15;;;;;;;10.47;4.93;;;;;;;;;;5080192;28;20447;-57
2023/01/23 12:58:46;;;;;;;8.07;4.50;;;;;;;;;;5080310;28;20451;-57
2023/01/23 13:01:23;;;;;;;8.07;4.97;;;;;;;;;;5078967;28;20474;-57
2023/01/23 13:03:58;;;;;;;5.70;4.70;;;;;;;;;;5080027;28;20471;-58
2023/01/23 13:06:40;;;;;;;4.90;4.07;;;;;;;;;;5079999;28;20475;-57
2023/01/23 13:09:10;;;;;;;5.37;4.53;;;;;;;;;;5079971;28;20893;-57
2023/01/23 13:11:50;;;;;;;4.80;4.13;;;;;;;;;;5079913;28;20984;-57
2023/01/23 13:14:21;;;;;;;6.43;4.37;;;;;;;;;;5079764;28;20503;-57
2023/01/23 13:16:52;;;;;;;6.77;4.37;;;;;;;;;;5080022;28;20519;-57
2023/01/23 13:22:13;;;;;;;9.27;5.70;;;;;;;;;;5068352;28;20448;-57
2023/01/23 13:25:16;;;;;;;6.53;5.13;;;;;;;;;;5078936;28;20447;-57
2023/01/23 13:27:50;;;;;;;7.73;5.30;;;;;;;;;;5079107;28;20472;-57
2023/01/23 13:30:36;;;;;;;9.90;5.07;;;;;;;;;;5079302;28;20907;-57
2023/01/23 13:36:12;;;;;;;7.00;4.90;;;;;;;;;;5135772;27;20539;-58
2023/01/23 13:38:41;;;;;;;9.93;6.10;;;;;;;;;;5135778;27;20492;-59
2023/01/23 13:41:28;;;;;;;6.37;4.83;;;;;;;;;;5135273;28;20529;-58
2023/01/23 13:44:02;;;;;;;5.70;4.73;;;;;;;;;;5109556;28;20531;-58
2023/01/23 13:46:36;;;;;;;6.47;4.33;;;;;;;;;;5115152;28;20821;-58
2023/01/23 13:56:37;;;;;;;6.83;4.63;;;;;;;;;;5030134;28;20442;-58
2023/01/23 13:58:15;;;;;;;4.67;3.73;;;;;;;;;;4857697;29;20454;-58
2023/01/23 14:07:58;;;;;;;28.30;7.33;;;;;;;;;;4734111;30;20450;-58
2023/01/23 14:17:07;;;;;;;5.47;4.20;;;;;;;;;;4732147;30;20509;-58
2023/01/23 14:19:53;;;;;;;5.17;4.00;;;;;;;;;;4740720;30;20455;-59
2023/01/23 14:22:36;;;;;;;12.73;4.50;;;;;;;;;;4756305;29;21000;-59
2023/01/23 14:25:14;;;;;;;5.03;4.53;;;;;;;;;;4808531;29;20945;-58
2023/01/23 14:27:42;;;;;;;4.97;4.17;;;;;;;;;;4856744;29;20822;-58
2023/01/23 14:30:25;;;;;;;5.00;4.30;;;;;;;;;;4896739;29;20485;-59
2023/01/23 14:32:54;;;;;;;6.50;4.10;;;;;;;;;;4968264;28;20480;-59
2023/01/23 14:35:24;;;;;;;4.40;4.00;;;;;;;;;;5027024;28;20489;-59
2023/01/23 14:37:54;;;;;;;4.43;3.87;;;;;;;;;;5084473;28;20467;-59
2023/01/23 14:40:23;;;;;;;6.17;3.87;;;;;;;;;;5114400;28;20443;-59
2023/01/23 14:42:57;;;;;;;10.37;4.37;;;;;;;;;;5113986;28;20530;-59
2023/01/23 14:45:28;;;;;;;8.13;4.23;;;;;;;;;;5111681;28;20521;-59
2023/01/23 14:47:59;;;;;;;5.10;4.53;;;;;;;;;;5100854;28;20439;-59
2023/01/23 14:50:33;;;;;;;6.70;4.10;;;;;;;;;;5100673;28;20489;-59
2023/01/23 14:53:03;;;;;;;4.20;3.80;;;;;;;;;;5100436;28;20512;-60
2023/01/23 14:55:34;;;;;;;5.10;4.20;;;;;;;;;;5100412;28;21052;-59
2023/01/23 14:58:03;;;;;;;8.67;3.90;;;;;;;;;;5100438;28;20448;-58
2023/01/23 15:00:32;;;;;;;3.77;3.37;;;;;;;;;;5100608;28;20444;-58
2023/01/23 15:03:00;;;;;;;4.90;3.90;;;;;;;;;;5100588;28;20466;-59
2023/01/23 15:05:28;;;;;;;15.23;6.07;;;;;;;;;;5100165;28;20461;-58
2023/01/23 15:07:57;;;;;;;4.43;4.03;;;;;;;;;;5100513;28;20447;-58
2023/01/23 15:10:28;;;;;;;6.50;4.10;;;;;;;;;;5100091;28;20497;-58
2023/01/23 15:12:57;;;;;;;4.47;3.87;;;;;;;;;;5100150;28;20467;-58
2023/01/23 15:15:26;;;;;;;5.80;3.53;;;;;;;;;;5100188;28;20507;-58
2023/01/23 15:17:55;;;;;;;5.40;4.17;;;;;;;;;;5100035;28;20478;-58
2023/01/23 15:20:30;;;;;;;6.20;3.77;;;;;;;;;;5099979;28;20468;-59
2023/01/23 15:23:13;;;;;;;5.80;4.27;;;;;;;;;;5099894;28;20977;-58
2023/01/23 15:25:42;;;;;;;6.93;3.90;;;;;;;;;;5100127;28;20473;-58
2023/01/23 15:28:30;;;;;;;5.60;4.17;;;;;;;;;;5099743;28;20452;-58
2023/01/23 15:30:58;;;;;;;5.73;4.27;;;;;;;;;;5100060;28;20444;-59
2023/01/23 15:33:28;;;;;;;7.60;4.60;;;;;;;;;;5099565;28;20546;-58